Time;durP1;ratioP1;P1;durP2;ratioP2;P2;SDS_P1;SDS_P2;PMS_P1;PMS_P2;Temp;Humidity;BMP_temperature;BMP_pressure;BME280_temperature;BME280_humidity;BME280_pressure;Samples;Min_cycle;Max_cycle;Signal;HPM_P1;HPM_P2
2022/06/11 00:00:09;;;;;;;16.17;2.72;;;17.70;99.90;;;;;;5113317;28;20067;-71
2022/06/11 00:02:35;;;;;;;10.82;3.03;;;;;;;;;;5112920;28;20486;-71
2022/06/11 00:05:02;;;;;;;15.35;2.58;;;;;;;;;;5112795;28;20062;-71
2022/06/11 00:07:28;;;;;;;14.65;2.72;;;;;;;;;;5116018;27;20119;-71
2022/06/11 00:09:54;;;;;;;17.27;3.00;;;;;;;;;;5116109;27;20083;-71
2022/06/11 00:12:21;;;;;;;20.23;3.22;;;16.80;99.20;;;;;;5116086;27;20043;-71
2022/06/11 00:14:47;;;;;;;15.18;2.63;;;;;;;;;;5116105;27;20353;-71
2022/06/11 00:17:16;;;;;;;15.48;3.03;;;16.80;99.80;;;;;;5116079;27;20035;-71
2022/06/11 00:19:43;;;;;;;13.55;2.80;;;16.70;99.70;;;;;;5116007;27;20058;-71
2022/06/11 00:22:10;;;;;;;9.88;3.00;;;;;;;;;;5099026;27;20042;-71
2022/06/11 00:24:36;;;;;;;19.65;3.38;;;15.60;99.90;;;;;;5099016;27;20507;-71
2022/06/11 00:27:03;;;;;;;14.32;2.80;;;16.50;99.90;;;;;;5116201;27;20043;-71
2022/06/11 00:29:30;;;;;;;17.05;3.33;;;15.30;99.90;;;;;;5098773;27;20046;-71
2022/06/11 00:31:56;;;;;;;18.63;2.90;;;16.30;99.90;;;;;;5115860;27;20552;-71
2022/06/11 00:34:23;;;;;;;14.80;3.25;;;15.60;99.90;;;;;;5116189;28;20045;-71
2022/06/11 00:36:49;;;;;;;13.05;2.83;;;;;;;;;;5098847;28;20039;-72
2022/06/11 00:39:18;;;;;;;10.00;2.75;;;16.20;99.90;;;;;;5115751;28;20039;-70
2022/06/11 00:41:47;;;;;;;18.70;3.10;;;16.40;99.90;;;;;;5115653;28;20035;-70
2022/06/11 00:44:14;;;;;;;14.25;3.03;;;;;;;;;;5115668;28;20562;-70
2022/06/11 00:46:44;;;;;;;14.70;3.05;;;16.40;99.90;;;;;;5115698;28;20126;-71
2022/06/11 00:49:28;;;;;;;19.83;3.55;;;16.20;99.90;;;;;;5115638;28;20096;-70
2022/06/11 00:52:06;;;;;;;11.82;2.78;;;15.70;99.90;;;;;;5115779;28;20051;-71
2022/06/11 00:54:33;;;;;;;12.63;3.15;;;16.30;99.90;;;;;;5115742;28;20054;-71
2022/06/11 00:57:00;;;;;;;21.05;3.75;;;;;;;;;;5118080;27;20031;-71
2022/06/11 00:59:38;;;;;;;17.23;3.53;;;16.20;99.90;;;;;;5120230;27;20046;-70
2022/06/11 01:02:05;;;;;;;15.93;2.85;;;15.40;99.90;;;;;;5119799;27;20082;-70
2022/06/11 01:04:33;;;;;;;21.02;3.75;;;16.00;99.90;;;;;;5119702;27;20043;-71
2022/06/11 01:07:36;;;;;;;15.57;3.20;;;15.90;99.90;;;;;;5119888;27;20093;-70
2022/06/11 01:10:17;;;;;;;19.92;4.03;;;14.90;99.90;;;;;;5119836;27;20047;-71
2022/06/11 01:12:59;;;;;;;13.77;3.28;;;;;;;;;;5119512;27;20070;-70
2022/06/11 01:15:41;;;;;;;21.63;3.67;;;16.90;99.90;;;;;;5119774;27;20481;-70
2022/06/11 01:18:07;;;;;;;;;;;;;;;;;;5102821;27;20047;-71
2022/06/11 01:20:41;;;;;;;12.75;3.10;;;;;;;;;;5119308;27;19994;-71
2022/06/11 01:23:34;;;;;;;12.20;3.10;;;15.80;99.90;;;;;;5119086;27;20117;-70
2022/06/11 01:26:09;;;;;;;17.10;3.50;;;;;;;;;;5102287;27;20039;-70
2022/06/11 01:28:42;;;;;;;13.20;3.00;;;;;;;;;;5119084;27;20034;-71
2022/06/11 01:31:19;;;;;;;19.27;3.53;;;15.80;99.90;;;;;;5119470;27;20039;-70
2022/06/11 01:33:57;;;;;;;15.55;3.30;;;;;;;;;;5119031;27;20046;-71
2022/06/11 01:36:52;;;;;;;18.25;3.78;;;15.60;99.90;;;;;;5119238;27;20087;-71
2022/06/11 01:39:24;;;;;;;14.07;3.33;;;15.60;99.90;;;;;;5099632;27;20481;-71
2022/06/11 01:42:16;;;;;;;15.88;3.15;;;15.80;99.90;;;;;;5118971;27;20085;-70
2022/06/11 01:44:43;;;;;;;17.63;3.78;;;15.70;99.90;;;;;;5119173;27;20165;-74
2022/06/11 01:47:12;;;;;;;20.73;3.40;;;;;;;;;;5119104;27;20078;-74
2022/06/11 01:49:44;;;;;;;13.73;2.88;;;15.70;99.90;;;;;;5118866;27;20035;-74
2022/06/11 01:52:23;;;;;;;15.48;3.30;;;;;;;;;;5118852;27;20039;-74
2022/06/11 01:55:00;;;;;;;20.60;3.00;;;15.60;99.90;;;;;;5118697;27;20046;-74
2022/06/11 01:57:35;;;;;;;19.23;3.70;;;16.50;99.90;;;;;;5119024;27;20431;-74
2022/06/11 02:00:19;;;;;;;18.50;3.20;;;15.50;99.90;;;;;;5118753;27;20039;-74
2022/06/11 02:03:09;;;;;;;18.42;3.10;;;15.50;99.90;;;;;;5118847;27;20031;-74
2022/06/11 02:06:15;;;;;;;17.33;3.10;;;15.50;99.90;;;;;;5118564;27;20031;-74
2022/06/11 02:09:17;;;;;;;18.05;3.63;;;15.50;99.90;;;;;;5117942;27;20126;-74
2022/06/11 02:12:00;;;;;;;19.77;3.33;;;15.50;99.90;;;;;;5118479;27;20505;-74
2022/06/11 02:14:44;;;;;;;9.18;2.58;;;15.70;99.90;;;;;;5118397;27;20046;-74
2022/06/11 02:17:19;;;;;;;14.80;2.83;;;15.30;99.90;;;;;;5118261;27;20510;-74
2022/06/11 02:19:57;;;;;;;14.07;3.17;;;15.40;99.90;;;;;;5118302;27;20113;-74
2022/06/11 02:22:47;;;;;;;12.70;3.20;;;15.70;99.90;;;;;;5118178;27;20607;-74
2022/06/11 02:25:13;;;;;;;16.38;3.45;;;;;;;;;;5118164;27;20047;-74
2022/06/11 02:27:40;;;;;;;13.35;3.00;;;16.00;99.90;;;;;;5118100;27;20042;-75
2022/06/11 02:30:09;;;;;;;21.02;3.25;;;15.20;99.90;;;;;;5118445;27;20041;-74
2022/06/11 02:32:35;;;;;;;17.48;3.70;;;;;;;;;;5118218;27;20039;-74
2022/06/11 02:35:04;;;;;;;19.85;3.28;;;;;;;;;;5117956;27;20043;-74
2022/06/11 02:37:48;;;;;;;20.13;3.05;;;15.30;99.90;;;;;;5118117;27;20501;-75
2022/06/11 02:40:25;;;;;;;18.00;3.78;;;15.60;99.90;;;;;;5117958;27;20031;-74
2022/06/11 02:42:52;;;;;;;17.17;4.35;;;;;;;;;;5117798;27;20049;-74
2022/06/11 02:45:19;;;;;;;17.42;4.13;;;;;;;;;;5117746;27;20395;-74
2022/06/11 02:47:47;;;;;;;21.65;3.72;;;;;;;;;;5100772;27;20491;-75
2022/06/11 02:50:21;;;;;;;19.05;3.42;;;15.00;99.90;;;;;;5117661;27;20092;-74
2022/06/11 02:52:47;;;;;;;22.20;3.70;;;;;;;;;;5117532;27;20035;-74
2022/06/11 02:55:13;;;;;;;21.15;3.83;;;;;;;;;;5117801;27;20383;-74
2022/06/11 02:57:40;;;;;;;21.35;3.72;;;;;;;;;;5100457;27;20047;-74
2022/06/11 03:00:09;;;;;;;16.38;3.65;;;15.30;99.90;;;;;;5117455;27;20068;-74
2022/06/11 03:02:36;;;;;;;18.45;3.70;;;15.20;99.90;;;;;;5117298;27;20043;-74
2022/06/11 03:05:02;;;;;;;20.45;4.38;;;;;;;;;;5100585;27;20083;-74
2022/06/11 03:07:29;;;;;;;20.17;3.75;;;;;;;;;;5100028;27;20555;-74
2022/06/11 03:09:55;;;;;;;18.42;3.67;;;;;;;;;;5117199;27;20047;-74
2022/06/11 03:12:21;;;;;;;23.08;4.22;;;;;;;;;;5117140;27;20050;-74
2022/06/11 03:14:47;;;;;;;16.77;3.92;;;;;;;;;;5117204;27;20035;-74
2022/06/11 03:17:16;;;;;;;22.95;4.07;;;15.30;99.90;;;;;;5100112;27;20095;-74
2022/06/11 03:19:42;;;;;;;24.80;4.03;;;;;;;;;;5116591;27;20043;-75
2022/06/11 03:22:08;;;;;;;14.68;3.88;;;;;;;;;;5117059;27;20045;-74
2022/06/11 03:24:34;;;;;;;17.58;3.95;;;15.70;99.90;;;;;;5100535;27;20126;-74
2022/06/11 03:27:00;;;;;;;15.45;3.55;;;;;;;;;;5117041;27;20035;-74
2022/06/11 03:29:26;;;;;;;16.50;3.75;;;;;;;;;;5116858;27;20043;-74
2022/06/11 03:31:53;;;;;;;23.83;4.13;;;14.80;99.90;;;;;;5116835;27;20043;-74
2022/06/11 03:34:19;;;;;;;17.88;3.20;;;15.20;99.90;;;;;;5082898;27;20087;-74
2022/06/11 03:36:46;;;;;;;23.35;4.20;;;15.20;99.90;;;;;;5082831;27;20039;-74
2022/06/11 03:39:12;;;;;;;24.67;5.00;;;16.20;99.90;;;;;;5116734;27;20043;-74
2022/06/11 03:41:39;;;;;;;22.52;4.47;;;15.10;99.90;;;;;;5099756;27;20047;-75
2022/06/11 03:44:05;;;;;;;19.15;4.15;;;;;;;;;;5116623;27;20043;-75
2022/06/11 03:46:31;;;;;;;21.80;4.45;;;;;;;;;;5116854;27;20043;-74
2022/06/11 03:48:57;;;;;;;22.73;4.28;;;15.50;99.90;;;;;;5116449;27;20066;-74
2022/06/11 03:51:23;;;;;;;18.20;3.92;;;16.20;99.90;;;;;;5082661;27;20085;-74
2022/06/11 03:53:49;;;;;;;27.55;3.83;;;16.00;99.90;;;;;;5116384;27;20491;-74
2022/06/11 03:56:16;;;;;;;24.42;4.70;;;;;;;;;;5116694;27;20074;-74
2022/06/11 03:58:43;;;;;;;24.90;4.18;;;15.10;99.90;;;;;;5116730;27;20379;-74
2022/06/11 04:01:16;;;;;;;23.42;4.47;;;;;;;;;;5116629;27;20166;-74
2022/06/11 04:03:54;;;;;;;26.08;4.10;;;15.10;99.90;;;;;;5116390;27;20141;-74
2022/06/11 04:06:30;;;;;;;20.80;4.20;;;15.10;99.90;;;;;;5116290;27;20039;-75
2022/06/11 04:08:56;;;;;;;24.52;4.40;;;;;;;;;;5099235;27;20102;-74
2022/06/11 04:11:23;;;;;;;21.80;4.15;;;15.10;99.90;;;;;;5116633;27;20046;-74
2022/06/11 04:13:50;;;;;;;25.10;4.20;;;14.90;99.90;;;;;;5116257;27;20043;-74
2022/06/11 04:16:27;;;;;;;23.95;4.00;;;;;;;;;;5099287;27;20045;-74
2022/06/11 04:18:54;;;;;;;17.98;3.90;;;15.00;99.90;;;;;;5116340;27;20054;-74
2022/06/11 04:21:21;;;;;;;22.45;4.15;;;15.20;99.90;;;;;;5099163;27;20376;-74
2022/06/11 04:23:50;;;;;;;18.75;3.92;;;15.20;99.90;;;;;;5116247;27;20051;-74
2022/06/11 04:26:18;;;;;;;17.65;3.85;;;;;;;;;;5116272;27;20099;-75
2022/06/11 04:28:44;;;;;;;26.50;4.60;;;;;;;;;;5116201;28;20039;-74
2022/06/11 04:31:10;;;;;;;19.92;4.57;;;15.10;99.90;;;;;;5116053;27;20202;-74
2022/06/11 04:33:37;;;;;;;19.15;3.80;;;;;;;;;;5116377;27;20074;-74
2022/06/11 04:36:04;;;;;;;27.55;4.95;;;14.50;99.90;;;;;;5115841;28;20043;-75
2022/06/11 04:38:31;;;;;;;29.27;5.32;;;;;;;;;;5099238;28;20043;-74
2022/06/11 04:40:57;;;;;;;21.15;4.65;;;;;;;;;;5115978;28;20088;-74
2022/06/11 04:43:23;;;;;;;28.98;5.45;;;;;;;;;;5115986;28;20050;-74
2022/06/11 04:45:49;;;;;;;27.73;5.25;;;;;;;;;;5115784;28;20039;-74
2022/06/11 04:48:16;;;;;;;25.13;5.28;;;;;;;;;;5115738;28;20051;-74
2022/06/11 04:50:42;;;;;;;30.88;4.88;;;;;;;;;;5115665;28;20084;-75
2022/06/11 04:53:08;;;;;;;30.48;6.25;;;;;;;;;;5115797;28;20035;-74
2022/06/11 04:55:34;;;;;;;27.25;5.25;;;14.40;99.90;;;;;;5115761;28;20038;-75
2022/06/11 04:58:00;;;;;;;23.17;4.80;;;;;;;;;;5115569;28;20039;-74
2022/06/11 05:00:27;;;;;;;28.42;5.18;;;15.40;99.90;;;;;;5115717;28;20179;-74
2022/06/11 05:02:53;;;;;;;29.45;5.60;;;15.40;99.90;;;;;;5115636;28;20039;-74
2022/06/11 05:05:20;;;;;;;24.23;4.70;;;;;;;;;;5115538;28;20050;-74
2022/06/11 05:07:46;;;;;;;30.70;6.20;;;;;;;;;;5115188;28;20055;-74
2022/06/11 05:10:15;;;;;;;30.20;5.80;;;15.50;99.90;;;;;;5115452;28;20050;-74
2022/06/11 05:12:41;;;;;;;30.77;6.00;;;;;;;;;;5115780;28;20079;-74
2022/06/11 05:15:08;;;;;;;32.45;5.25;;;15.70;99.90;;;;;;5098526;28;20039;-74
2022/06/11 05:17:34;;;;;;;25.55;5.50;;;;;;;;;;5098428;28;20059;-74
2022/06/11 05:20:00;;;;;;;34.67;5.88;;;;;;;;;;5115454;28;20046;-74
2022/06/11 05:22:27;;;;;;;38.17;6.75;;;15.60;99.90;;;;;;5098464;28;20510;-74
2022/06/11 05:24:53;;;;;;;39.03;7.53;;;;;;;;;;5115344;28;20081;-74
2022/06/11 05:27:21;;;;;;;32.25;6.85;;;;;;;;;;5098427;28;20035;-74
2022/06/11 05:29:52;;;;;;;37.50;7.10;;;;;;;;;;5098307;28;20097;-74
2022/06/11 05:32:22;;;;;;;30.67;6.63;;;;;;;;;;5115683;28;20036;-74
2022/06/11 05:34:48;;;;;;;29.30;5.50;;;;;;;;;;5115400;28;20050;-74
2022/06/11 05:37:14;;;;;;;32.65;6.32;;;;;;;;;;5115305;28;20075;-74
2022/06/11 05:39:43;;;;;;;33.58;5.85;;;15.50;99.90;;;;;;5115302;28;20051;-74
2022/06/11 05:42:10;;;;;;;36.63;5.57;;;15.90;99.90;;;;;;5116154;27;20051;-75
2022/06/11 05:44:36;;;;;;;23.33;4.80;;;;;;;;;;5102048;27;20047;-75
2022/06/11 05:47:02;;;;;;;40.50;6.03;;;;;;;;;;5119027;27;20047;-74
2022/06/11 05:49:31;;;;;;;26.85;5.25;;;;;;;;;;5119036;27;20496;-75
2022/06/11 05:51:58;;;;;;;43.70;7.25;;;;;;;;;;5118856;27;20039;-74
2022/06/11 05:54:26;;;;;;;40.00;6.80;;;;;;;;;;5101569;27;20065;-74
2022/06/11 05:56:53;;;;;;;31.95;5.95;;;16.10;99.90;;;;;;5118685;27;20043;-74
2022/06/11 05:59:23;;;;;;;35.45;5.38;;;16.10;99.90;;;;;;5118703;27;20471;-74
2022/06/11 06:01:51;;;;;;;31.27;6.35;;;16.20;99.90;;;;;;5101966;27;20051;-75
2022/06/11 06:04:17;;;;;;;40.25;6.68;;;;;;;;;;5118505;27;20047;-74
2022/06/11 06:06:43;;;;;;;46.13;6.60;;;;;;;;;;5118677;27;20039;-75
2022/06/11 06:09:09;;;;;;;36.88;6.03;;;16.30;99.90;;;;;;5101468;27;20047;-75
2022/06/11 06:11:36;;;;;;;35.03;6.65;;;;;;;;;;5118974;27;20070;-75
2022/06/11 06:14:02;;;;;;;34.33;5.20;;;;;;;;;;5118558;27;20054;-75
2022/06/11 06:16:29;;;;;;;40.03;6.38;;;16.20;99.90;;;;;;5118438;27;20039;-74
2022/06/11 06:18:56;;;;;;;35.65;6.13;;;16.50;99.90;;;;;;5118678;27;20075;-75
2022/06/11 06:21:25;;;;;;;29.98;5.57;;;16.50;99.90;;;;;;5118187;27;20122;-74
2022/06/11 06:23:51;;;;;;;35.95;5.93;;;;;;;;;;5118256;27;20391;-75
2022/06/11 06:26:17;;;;;;;38.72;6.10;;;17.30;99.90;;;;;;5118256;27;20047;-75
2022/06/11 06:28:43;;;;;;;29.55;4.93;;;;;;;;;;5101006;27;20043;-75
2022/06/11 06:31:11;;;;;;;36.10;6.25;;;16.50;99.90;;;;;;5118495;27;20027;-75
2022/06/11 06:33:37;;;;;;;26.73;5.82;;;;;;;;;;5100992;27;20043;-75
2022/06/11 06:36:05;;;;;;;27.92;5.05;;;16.60;99.90;;;;;;5117982;27;20076;-75
2022/06/11 06:38:32;;;;;;;30.27;4.82;;;;;;;;;;5118260;27;20494;-75
2022/06/11 06:40:58;;;;;;;24.45;4.00;;;;;;;;;;5117976;27;20081;-74
2022/06/11 06:43:24;;;;;;;32.58;5.65;;;16.10;99.90;;;;;;5117873;27;20171;-75
2022/06/11 06:45:50;;;;;;;26.42;5.28;;;;;;;;;;5117839;27;20077;-75
2022/06/11 06:48:17;;;;;;;32.30;5.25;;;;;;;;;;5117776;27;20047;-75
2022/06/11 06:50:43;;;;;;;34.13;5.78;;;;;;;;;;5117880;27;20035;-75
2022/06/11 06:53:09;;;;;;;32.67;5.68;;;;;;;;;;5116990;28;20040;-75
2022/06/11 06:55:35;;;;;;;34.88;5.40;;;;;;;;;;5117278;27;20035;-74
2022/06/11 06:58:01;;;;;;;34.03;5.50;;;15.80;99.90;;;;;;5117726;27;20034;-74
2022/06/11 07:00:27;;;;;;;27.30;4.80;;;;;;;;;;5117699;27;20380;-75
2022/06/11 07:02:53;;;;;;;36.40;5.10;;;;;;;;;;5117387;27;20038;-75
2022/06/11 07:05:20;;;;;;;25.40;4.38;;;17.90;99.90;;;;;;5117303;27;20054;-75
2022/06/11 07:07:48;;;;;;;26.85;4.88;;;16.80;99.90;;;;;;5117116;27;20587;-75
2022/06/11 07:10:15;;;;;;;28.73;5.18;;;17.20;99.90;;;;;;5117614;27;20047;-75
2022/06/11 07:12:41;;;;;;;26.63;4.43;;;;;;;;;;5117539;27;20088;-75
2022/06/11 07:15:08;;;;;;;21.50;4.03;;;;;;;;;;5117258;27;20039;-75
2022/06/11 07:17:56;;;;;;;31.25;5.10;;;17.30;99.90;;;;;;5117118;27;20035;-75
2022/06/11 07:20:26;;;;;;;30.25;4.45;;;;;;;;;;5116303;27;20498;-75
2022/06/11 07:22:59;;;;;;;33.97;5.32;;;;;;;;;;5117200;27;20053;-75
2022/06/11 07:25:26;;;;;;;28.27;4.50;;;17.10;99.90;;;;;;5100293;27;20046;-75
2022/06/11 07:27:59;;;;;;;20.95;4.72;;;16.90;99.90;;;;;;5117302;27;20505;-75
2022/06/11 07:30:26;;;;;;;29.00;5.05;;;16.90;99.90;;;;;;5100202;27;20078;-75
2022/06/11 07:32:59;;;;;;;23.73;4.18;;;17.40;99.90;;;;;;5116940;27;20049;-75
2022/06/11 07:35:26;;;;;;;25.55;4.88;;;;;;;;;;5116885;27;20113;-75
2022/06/11 07:37:52;;;;;;;28.00;4.45;;;17.10;99.70;;;;;;5116830;27;20498;-75
2022/06/11 07:40:18;;;;;;;27.05;4.22;;;18.10;99.90;;;;;;5117024;27;20439;-75
2022/06/11 07:42:44;;;;;;;30.60;5.50;;;;;;;;;;5116946;27;20082;-75
2022/06/11 07:45:11;;;;;;;36.35;5.03;;;17.30;99.70;;;;;;5116670;27;20047;-75
2022/06/11 07:47:55;;;;;;;27.15;4.43;;;;;;;;;;5099816;27;20464;-75
2022/06/11 07:50:25;;;;;;;25.73;4.25;;;16.60;99.90;;;;;;5116894;27;20055;-75
2022/06/11 07:52:51;;;;;;;28.40;4.15;;;;;;;;;;5099729;27;20058;-75
2022/06/11 07:55:18;;;;;;;34.33;5.13;;;;;;;;;;5116445;27;20039;-74
2022/06/11 07:57:44;;;;;;;26.73;4.22;;;;;;;;;;5099348;27;20075;-75
2022/06/11 08:00:15;;;;;;;22.08;4.45;;;17.50;99.40;;;;;;5116360;27;20031;-75
2022/06/11 08:02:40;;;;;;;23.92;4.13;;;16.80;99.90;;;;;;5099372;27;20051;-75
2022/06/11 08:05:06;;;;;;;19.65;3.75;;;17.40;99.90;;;;;;5116250;27;20035;-75
2022/06/11 08:07:32;;;;;;;31.10;4.18;;;;;;;;;;5116371;27;20091;-75
2022/06/11 08:09:59;;;;;;;29.13;4.18;;;;;;;;;;5116475;27;20039;-75
2022/06/11 08:12:25;;;;;;;25.10;5.07;;;;;;;;;;5116255;27;20035;-75
2022/06/11 08:14:56;;;;;;;23.77;4.30;;;18.70;99.90;;;;;;5116529;27;20414;-75
2022/06/11 08:17:22;;;;;;;22.63;3.80;;;;;;;;;;5115997;27;20038;-75
2022/06/11 08:19:49;;;;;;;18.02;3.85;;;;;;;;;;5116008;27;20043;-75
2022/06/11 08:22:15;;;;;;;23.90;4.28;;;;;;;;;;5116204;27;20043;-75
2022/06/11 08:24:41;;;;;;;25.67;4.25;;;;;;;;;;5116180;27;20107;-75
2022/06/11 08:27:07;;;;;;;28.95;5.05;;;;;;;;;;5116362;27;20043;-75
2022/06/11 08:29:33;;;;;;;30.52;4.35;;;;;;;;;;5115922;27;20128;-75
2022/06/11 08:31:59;;;;;;;23.73;3.85;;;;;;;;;;5116053;27;20039;-75
2022/06/11 08:34:25;;;;;;;19.77;3.50;;;;;;;;;;5116223;28;20467;-75
2022/06/11 08:36:51;;;;;;;25.55;4.30;;;;;;;;;;5115775;27;20043;-75
2022/06/11 08:39:17;;;;;;;20.25;3.90;;;;;;;;;;5115720;27;20096;-75
2022/06/11 08:41:43;;;;;;;24.10;4.13;;;;;;;;;;5116014;27;20470;-75
2022/06/11 08:44:12;;;;;;;21.20;3.67;;;18.40;96.80;;;;;;5116045;28;20041;-75
2022/06/11 08:46:42;;;;;;;21.40;3.67;;;18.20;96.30;;;;;;5115711;28;20049;-75
2022/06/11 08:49:25;;;;;;;17.70;3.47;;;17.70;99.10;;;;;;5115554;28;20039;-75
2022/06/11 08:52:00;;;;;;;23.63;3.30;;;18.40;96.20;;;;;;5115713;28;20070;-75
2022/06/11 08:54:34;;;;;;;19.52;3.60;;;18.60;96.20;;;;;;5115540;28;20082;-75
2022/06/11 08:57:35;;;;;;;23.48;3.70;;;18.80;95.20;;;;;;5115609;28;20046;-75
2022/06/11 09:00:11;;;;;;;31.45;4.28;;;;;;;;;;5098582;28;20125;-75
2022/06/11 09:03:00;;;;;;;20.40;3.53;;;19.50;98.50;;;;;;5115603;28;20043;-75
2022/06/11 09:05:40;;;;;;;25.20;4.07;;;17.60;97.90;;;;;;5115560;28;20039;-75
2022/06/11 09:08:28;;;;;;;17.10;3.55;;;17.90;98.00;;;;;;5111854;28;20055;-75
2022/06/11 09:11:12;;;;;;;19.35;3.60;;;19.20;98.80;;;;;;5095117;28;20118;-74
2022/06/11 09:13:41;;;;;;;24.23;4.47;;;18.40;98.20;;;;;;5095134;28;20071;-75
2022/06/11 09:16:12;;;;;;;23.48;3.70;;;18.80;95.10;;;;;;5112077;28;20078;-74
2022/06/11 09:19:11;;;;;;;18.87;3.37;;;19.10;96.80;;;;;;5115431;28;20047;-75
2022/06/11 09:22:02;;;;;;;21.70;3.22;;;19.20;97.90;;;;;;5116144;28;20101;-70
2022/06/11 09:24:54;;;;;;;17.88;3.15;;;18.90;93.50;;;;;;5115840;28;20043;-71
2022/06/11 09:27:36;;;;;;;24.00;3.58;;;19.50;97.40;;;;;;5099034;28;20039;-71
2022/06/11 09:30:21;;;;;;;19.58;3.05;;;19.00;92.60;;;;;;5116367;28;20043;-71
2022/06/11 09:32:58;;;;;;;17.60;2.63;;;19.90;97.20;;;;;;5117151;28;20064;-71
2022/06/11 09:35:50;;;;;;;18.92;4.00;;;20.00;97.10;;;;;;5116016;28;20031;-71
2022/06/11 09:38:29;;;;;;;16.27;3.75;;;19.50;93.70;;;;;;5115713;28;20044;-72
2022/06/11 09:41:07;;;;;;;18.40;2.83;;;19.40;93.40;;;;;;5115707;28;20057;-71
2022/06/11 09:43:50;;;;;;;20.60;3.38;;;20.20;96.90;;;;;;5115620;28;20780;-71
2022/06/11 09:47:00;;;;;;;21.42;3.30;;;19.10;95.70;;;;;;5098516;28;20039;-75
2022/06/11 09:49:34;;;;;;;22.48;3.78;;;19.60;95.80;;;;;;5001303;28;20072;-75
2022/06/11 09:52:26;;;;;;;18.15;3.25;;;19.70;92.70;;;;;;5100629;28;20495;-74
2022/06/11 09:55:07;;;;;;;13.65;3.15;;;20.30;96.00;;;;;;5115663;28;20105;-74
2022/06/11 09:58:01;;;;;;;18.08;2.95;;;19.60;91.50;;;;;;5115376;28;20089;-74
2022/06/11 10:00:30;;;;;;;20.77;3.33;;;19.60;92.00;;;;;;5115592;28;20075;-74
2022/06/11 10:03:31;;;;;;;14.80;2.50;;;20.20;95.00;;;;;;5115574;28;20062;-75
2022/06/11 10:06:17;;;;;;;15.85;2.80;;;20.00;90.00;;;;;;5104180;28;20051;-75
2022/06/11 10:08:55;;;;;;;24.42;3.33;;;20.60;94.30;;;;;;5097755;28;20120;-75
2022/06/11 10:11:35;;;;;;;20.08;3.28;;;19.90;91.10;;;;;;5115074;28;20043;-75
2022/06/11 10:14:29;;;;;;;21.17;3.17;;;20.20;93.80;;;;;;5097811;28;20036;-74
2022/06/11 10:17:01;;;;;;;18.17;2.88;;;20.10;88.80;;;;;;5115108;28;20039;-75
2022/06/11 10:19:50;;;;;;;22.05;3.80;;;19.40;91.90;;;;;;5098275;28;20043;-75
2022/06/11 10:22:24;;;;;;;22.95;3.20;;;20.10;89.40;;;;;;5115170;28;20032;-75
2022/06/11 10:25:11;;;;;;;23.65;3.55;;;19.20;93.40;;;;;;5114720;28;20054;-75
2022/06/11 10:27:43;;;;;;;15.68;2.88;;;20.30;90.30;;;;;;5114526;28;20043;-75
2022/06/11 10:30:26;;;;;;;18.50;2.97;;;20.70;93.80;;;;;;5114682;28;20428;-74
2022/06/11 10:32:55;;;;;;;17.90;3.17;;;20.10;89.60;;;;;;5114730;28;20122;-75
2022/06/11 10:35:28;;;;;;;15.95;3.05;;;20.30;89.50;;;;;;5114787;28;20046;-74
2022/06/11 10:38:30;;;;;;;22.17;3.35;;;20.50;86.80;;;;;;5114752;28;20514;-74
2022/06/11 10:40:58;;;;;;;17.02;2.88;;;20.40;89.00;;;;;;5110125;28;20083;-74
2022/06/11 10:43:45;;;;;;;15.65;2.97;;;20.50;92.90;;;;;;5097754;28;20043;-75
2022/06/11 10:46:11;;;;;;;14.15;2.78;;;20.40;92.90;;;;;;5114303;28;20093;-74
2022/06/11 10:48:38;;;;;;;14.98;2.40;;;20.90;92.60;;;;;;5114411;28;20043;-75
2022/06/11 10:51:14;;;;;;;16.38;2.97;;;20.40;87.10;;;;;;5114636;28;20036;-75
2022/06/11 10:53:54;;;;;;;19.63;3.75;;;20.50;86.80;;;;;;5114271;28;20472;-75
2022/06/11 10:56:30;;;;;;;14.43;2.95;;;21.40;88.10;;;;;;5114179;28;20122;-75
2022/06/11 10:59:03;;;;;;;14.90;2.90;;;20.80;92.40;;;;;;5114249;28;20082;-74
2022/06/11 11:01:34;;;;;;;15.63;2.78;;;20.60;92.20;;;;;;5114496;28;20044;-75
2022/06/11 11:04:09;;;;;;;14.35;2.60;;;20.90;87.90;;;;;;5114234;28;20613;-75
2022/06/11 11:06:36;;;;;;;17.15;3.10;;;21.00;86.70;;;;;;5114339;28;20032;-75
2022/06/11 11:09:11;;;;;;;18.65;3.10;;;21.30;91.70;;;;;;5096756;28;20063;-75
2022/06/11 11:11:44;;;;;;;18.00;3.03;;;21.60;91.40;;;;;;5114093;28;20096;-75
2022/06/11 11:14:18;;;;;;;14.85;2.95;;;20.30;91.30;;;;;;5114322;28;20042;-75
2022/06/11 11:16:48;;;;;;;10.63;2.38;;;21.40;91.40;;;;;;5114269;28;20044;-75
2022/06/11 11:19:25;;;;;;;16.88;2.90;;;21.50;91.50;;;;;;5113864;28;20047;-76
2022/06/11 11:22:04;;;;;;;12.10;2.65;;;21.50;91.10;;;;;;5113883;28;20055;-75
2022/06/11 11:24:42;;;;;;;16.30;2.80;;;20.60;90.00;;;;;;5113884;28;20149;-75
2022/06/11 11:27:21;;;;;;;13.93;2.70;;;20.10;90.50;;;;;;5113844;28;20118;-75
2022/06/11 11:29:53;;;;;;;16.10;3.08;;;21.50;90.90;;;;;;5113694;28;20039;-75
2022/06/11 11:32:25;;;;;;;;;;;20.90;85.40;;;;;;5114015;28;20066;-76
2022/06/11 11:34:51;;;;;;;17.63;3.65;;;21.50;91.50;;;;;;5113626;28;19923;-75
2022/06/11 11:37:16;;;;;;;13.80;2.78;;;21.30;91.40;;;;;;5113918;28;20035;-75
2022/06/11 11:39:50;;;;;;;20.23;3.55;;;21.40;91.60;;;;;;5113231;28;20039;-76
2022/06/11 11:42:37;;;;;;;20.42;3.53;;;21.30;82.30;;;;;;5113335;28;20483;-76
2022/06/11 11:45:31;;;;;;;18.70;3.53;;;21.90;91.00;;;;;;5113332;28;20044;-76
2022/06/11 11:48:05;;;;;;;13.15;3.40;;;21.40;91.30;;;;;;5113213;28;20046;-75
2022/06/11 11:50:37;;;;;;;19.52;4.07;;;21.50;88.80;;;;;;5113149;28;20051;-74
2022/06/11 11:53:05;;;;;;;22.00;3.60;;;21.80;91.60;;;;;;5113020;28;20035;-75
2022/06/11 11:55:33;;;;;;;18.35;3.88;;;21.80;91.80;;;;;;5113134;28;20041;-74
2022/06/11 11:58:17;;;;;;;19.55;3.63;;;22.00;91.60;;;;;;5113035;28;20104;-75
2022/06/11 12:00:51;;;;;;;17.85;3.97;;;21.80;91.00;;;;;;5113423;28;20118;-75
2022/06/11 12:03:43;;;;;;;22.55;4.07;;;21.40;91.30;;;;;;5113082;28;20050;-75
2022/06/11 12:06:13;;;;;;;21.20;4.07;;;21.00;85.50;;;;;;5112498;28;20114;-75
2022/06/11 12:08:52;;;;;;;21.88;3.65;;;21.80;89.50;;;;;;5112584;28;20576;-75
2022/06/11 12:11:23;;;;;;;22.55;4.25;;;21.90;91.50;;;;;;5095861;28;20035;-75
2022/06/11 12:13:52;;;;;;;24.08;4.45;;;21.90;91.40;;;;;;5095837;28;20040;-75
2022/06/11 12:16:37;;;;;;;18.30;3.50;;;21.80;91.40;;;;;;5113055;28;20124;-75
2022/06/11 12:19:11;;;;;;;18.05;3.58;;;21.30;85.50;;;;;;5112703;28;20494;-75
2022/06/11 12:21:42;;;;;;;17.52;3.22;;;21.20;84.20;;;;;;5112730;28;20039;-75
2022/06/11 12:24:16;;;;;;;20.58;3.42;;;21.40;84.90;;;;;;5112487;28;20043;-75
2022/06/11 12:26:47;;;;;;;18.27;3.53;;;21.50;91.30;;;;;;5112685;28;20122;-75
2022/06/11 12:29:29;;;;;;;20.38;3.40;;;20.90;88.50;;;;;;5112722;28;20047;-75
2022/06/11 12:32:00;;;;;;;15.48;2.95;;;21.10;90.20;;;;;;5095545;28;20050;-75
2022/06/11 12:34:29;;;;;;;15.85;2.83;;;21.80;90.60;;;;;;5112519;28;20039;-75
2022/06/11 12:37:25;;;;;;;20.50;3.50;;;20.90;81.50;;;;;;5112525;28;20162;-75
2022/06/11 12:40:13;;;;;;;26.55;4.00;;;20.30;91.20;;;;;;5112749;28;20082;-75
2022/06/11 12:42:58;;;;;;;18.67;3.28;;;21.40;82.80;;;;;;5112426;28;20040;-75
2022/06/11 12:45:40;;;;;;;18.52;3.33;;;21.60;82.90;;;;;;5112372;28;20050;-75
2022/06/11 12:48:15;;;;;;;19.65;3.30;;;22.50;91.10;;;;;;5112686;28;20388;-75
2022/06/11 12:51:01;;;;;;;19.52;3.40;;;21.50;90.90;;;;;;5112716;28;20075;-75
2022/06/11 12:53:30;;;;;;;15.32;3.40;;;22.60;90.40;;;;;;5115964;28;20118;-75
2022/06/11 12:56:17;;;;;;;18.15;3.58;;;22.40;91.00;;;;;;5116569;28;20039;-76
2022/06/11 12:58:49;;;;;;;20.52;3.78;;;22.50;90.20;;;;;;5116516;28;20553;-75
2022/06/11 13:01:49;;;;;;;21.20;3.17;;;21.80;90.20;;;;;;5116556;28;20047;-76
2022/06/11 13:04:50;;;;;;;16.63;3.70;;;22.30;90.80;;;;;;5116779;28;20044;-75
2022/06/11 13:07:34;;;;;;;23.85;4.10;;;21.40;91.30;;;;;;5045038;28;20060;-75
2022/06/11 13:10:22;;;;;;;19.17;3.28;;;21.70;91.00;;;;;;5099021;28;20059;-75
2022/06/11 13:13:08;;;;;;;23.05;3.80;;;21.40;90.20;;;;;;5116544;28;20090;-75
2022/06/11 13:15:46;;;;;;;16.48;3.20;;;22.10;81.40;;;;;;5099269;28;20047;-74
2022/06/11 13:18:50;;;;;;;20.38;3.67;;;22.80;90.80;;;;;;5116007;28;20134;-74
2022/06/11 13:21:42;;;;;;;13.90;2.83;;;21.80;81.30;;;;;;5079546;28;20090;-75
2022/06/11 13:25:06;;;;;;;18.30;3.47;;;22.00;81.20;;;;;;5115896;28;20053;-75
2022/06/11 13:27:32;;;;;;;23.33;3.70;;;;;;;;;;5018025;28;20049;-75
2022/06/11 13:30:06;;;;;;;26.08;4.55;;;22.20;82.30;;;;;;5017910;28;20073;-74
2022/06/11 13:33:11;;;;;;;22.60;4.00;;;21.30;90.30;;;;;;5051382;28;20040;-75
2022/06/11 13:35:51;;;;;;;21.73;3.38;;;22.40;90.60;;;;;;5110805;28;20135;-75
2022/06/11 13:38:25;;;;;;;22.25;3.97;;;22.70;90.80;;;;;;5115653;28;20044;-75
2022/06/11 13:41:12;;;;;;;20.48;3.40;;;21.50;86.10;;;;;;5115720;28;20044;-75
2022/06/11 13:43:44;;;;;;;18.92;3.97;;;22.20;83.50;;;;;;5115619;28;20051;-75